Time;durP1;ratioP1;P1;durP2;ratioP2;P2;SDS_P1;SDS_P2;PMS_P1;PMS_P2;Temp;Humidity;BMP_temperature;BMP_pressure;BME280_temperature;BME280_humidity;BME280_pressure;Samples;Min_cycle;Max_cycle;Signal;HPM_P1;HPM_P2
2023/05/12 00:00:47;;;;;;;14.52;10.65;;;14.10;99.90;;;;;;4972083;28;20021;-79
2023/05/12 00:03:14;;;;;;;8.98;5.55;;;14.10;99.90;;;;;;4973964;28;20031;-77
2023/05/12 00:05:40;;;;;;;13.93;9.13;;;14.20;99.90;;;;;;4973551;28;20073;-77
2023/05/12 00:08:05;;;;;;;12.43;8.18;;;14.20;99.90;;;;;;4958179;28;20114;-77
2023/05/12 00:10:31;;;;;;;10.18;4.68;;;14.10;99.90;;;;;;4956450;28;20023;-77
2023/05/12 00:12:56;;;;;;;11.88;8.13;;;14.20;99.90;;;;;;4975758;28;20031;-78
2023/05/12 00:15:23;;;;;;;14.20;8.73;;;14.00;99.90;;;;;;4975023;28;20397;-78
2023/05/12 00:17:51;;;;;;;14.63;8.93;;;14.00;99.90;;;;;;4973666;28;20394;-78
2023/05/12 00:20:17;;;;;;;16.17;8.23;;;13.90;99.90;;;;;;4966592;28;20648;-78
2023/05/12 00:22:43;;;;;;;19.55;11.20;;;13.90;99.90;;;;;;4969331;28;20039;-76
2023/05/12 00:25:08;;;;;;;12.27;8.43;;;13.90;99.90;;;;;;4962943;28;20433;-78
2023/05/12 00:27:34;;;;;;;16.20;10.05;;;13.90;99.90;;;;;;4964397;28;20027;-78
2023/05/12 00:30:00;;;;;;;12.40;7.70;;;13.90;99.90;;;;;;4960424;28;20662;-80
2023/05/12 00:32:26;;;;;;;15.55;11.05;;;13.90;99.90;;;;;;4962169;28;20032;-77
2023/05/12 00:34:53;;;;;;;11.30;7.90;;;13.90;99.90;;;;;;4957336;28;20062;-79
2023/05/12 00:37:18;;;;;;;15.90;11.65;;;13.90;99.90;;;;;;4967028;28;20031;-79
2023/05/12 00:39:44;;;;;;;9.50;5.78;;;14.00;99.90;;;;;;4971450;28;20027;-78
2023/05/12 00:42:11;;;;;;;17.67;10.82;;;14.10;99.90;;;;;;4956767;28;20023;-78
2023/05/12 00:44:36;;;;;;;15.65;11.65;;;14.00;99.90;;;;;;4951074;28;20485;-78
2023/05/12 00:47:03;;;;;;;11.60;7.43;;;13.90;99.90;;;;;;4964769;28;20023;-78
2023/05/12 00:49:29;;;;;;;13.25;9.40;;;14.00;99.90;;;;;;4934436;29;20023;-77
2023/05/12 00:51:56;;;;;;;11.68;6.60;;;13.90;99.90;;;;;;4965606;28;20035;-78
2023/05/12 00:54:22;;;;;;;7.70;4.03;;;13.90;99.90;;;;;;4962431;28;20031;-79
2023/05/12 00:56:48;;;;;;;12.48;8.00;;;14.00;99.90;;;;;;4970131;28;20023;-79
2023/05/12 00:59:14;;;;;;;8.73;5.82;;;13.90;99.90;;;;;;4964434;28;20032;-79
2023/05/12 01:01:39;;;;;;;10.50;6.93;;;13.80;99.90;;;;;;4962950;28;20039;-77
2023/05/12 01:04:05;;;;;;;12.02;8.20;;;13.80;99.90;;;;;;4960350;28;20442;-78
2023/05/12 01:06:38;;;;;;;12.93;7.72;;;13.80;99.90;;;;;;4946678;28;20019;-78
2023/05/12 01:09:04;;;;;;;10.73;7.05;;;13.80;99.90;;;;;;4955001;28;20046;-78
2023/05/12 01:11:30;;;;;;;8.60;6.45;;;13.80;99.90;;;;;;4957472;28;20500;-79
2023/05/12 01:13:55;;;;;;;7.63;3.70;;;13.80;99.90;;;;;;4943667;29;20767;-78
2023/05/12 01:16:24;;;;;;;12.88;5.57;;;13.80;99.90;;;;;;4957704;28;20022;-79
2023/05/12 01:18:53;;;;;;;8.32;5.13;;;13.90;99.90;;;;;;4971408;28;20614;-79
2023/05/12 01:21:19;;;;;;;7.38;3.80;;;13.80;99.90;;;;;;4958145;28;20497;-78
2023/05/12 01:24:01;;;;;;;8.07;5.43;;;13.80;99.90;;;;;;4967722;28;20170;-79
2023/05/12 01:26:28;;;;;;;6.78;4.00;;;13.70;99.90;;;;;;4956244;28;20523;-78
2023/05/12 01:28:55;;;;;;;6.97;4.18;;;13.80;99.90;;;;;;4971378;28;20679;-79
2023/05/12 01:31:22;;;;;;;7.10;2.60;;;13.80;99.90;;;;;;4952150;28;20026;-78
2023/05/12 01:33:48;;;;;;;7.00;4.18;;;13.80;99.90;;;;;;4963618;28;20027;-77
2023/05/12 01:36:13;;;;;;;6.40;3.00;;;13.80;99.90;;;;;;4954782;28;20049;-78
2023/05/12 01:38:39;;;;;;;6.97;2.42;;;13.80;99.90;;;;;;4943637;28;20086;-78
2023/05/12 01:41:05;;;;;;;8.30;2.85;;;13.80;99.90;;;;;;4964462;28;20448;-79
2023/05/12 01:43:30;;;;;;;4.88;2.38;;;13.70;99.90;;;;;;4964928;28;20087;-78
2023/05/12 01:45:56;;;;;;;5.88;3.30;;;13.70;99.90;;;;;;4946951;29;20053;-78
2023/05/12 01:48:21;;;;;;;6.68;3.35;;;13.60;99.90;;;;;;4964330;28;20034;-78
2023/05/12 01:50:47;;;;;;;6.95;3.67;;;13.70;99.90;;;;;;4968207;28;20038;-79
2023/05/12 01:53:13;;;;;;;5.72;3.08;;;13.60;99.90;;;;;;4968030;28;20019;-79
2023/05/12 01:55:38;;;;;;;6.85;3.25;;;13.60;99.90;;;;;;4952706;28;20097;-79
2023/05/12 01:58:04;;;;;;;6.68;3.83;;;13.50;99.90;;;;;;4965897;28;20449;-79
2023/05/12 02:00:29;;;;;;;6.47;2.63;;;13.60;99.90;;;;;;4956928;28;20050;-78
2023/05/12 02:02:56;;;;;;;6.53;3.88;;;13.70;99.90;;;;;;4965379;28;20034;-79
2023/05/12 02:05:23;;;;;;;4.32;2.38;;;13.60;99.90;;;;;;4960107;28;20501;-79
2023/05/12 02:07:48;;;;;;;7.78;3.80;;;13.60;99.90;;;;;;4968750;28;20026;-77
2023/05/12 02:10:14;;;;;;;6.93;3.25;;;13.50;99.90;;;;;;4961629;28;20759;-79
2023/05/12 02:12:39;;;;;;;8.30;3.55;;;13.60;99.90;;;;;;4963843;28;20370;-79
2023/05/12 02:15:05;;;;;;;10.48;5.90;;;13.60;99.90;;;;;;4969678;28;20022;-77
2023/05/12 02:17:31;;;;;;;9.68;5.57;;;13.60;99.90;;;;;;4972552;28;20308;-77
2023/05/12 02:19:57;;;;;;;8.23;4.15;;;13.60;99.90;;;;;;4967535;28;20035;-78
2023/05/12 02:22:22;;;;;;;9.10;5.40;;;13.70;99.90;;;;;;4972594;28;20137;-78
2023/05/12 02:24:48;;;;;;;11.10;6.20;;;13.60;99.90;;;;;;4962320;28;20024;-77
2023/05/12 02:27:13;;;;;;;9.70;5.63;;;13.60;99.90;;;;;;4959099;28;20059;-79
2023/05/12 02:29:39;;;;;;;7.05;3.25;;;13.60;99.90;;;;;;4959885;28;20119;-79
2023/05/12 02:32:05;;;;;;;19.33;10.63;;;13.70;99.90;;;;;;4957367;28;20031;-79
2023/05/12 02:34:30;;;;;;;12.68;7.68;;;13.60;99.90;;;;;;4962517;28;20057;-78
2023/05/12 02:36:56;;;;;;;10.55;5.57;;;13.70;99.90;;;;;;4956330;28;20022;-79
2023/05/12 02:39:22;;;;;;;11.23;5.68;;;13.70;99.90;;;;;;4974875;28;20497;-78
2023/05/12 02:41:49;;;;;;;13.30;7.35;;;13.70;99.90;;;;;;4974005;28;20054;-78
2023/05/12 02:44:16;;;;;;;16.05;9.10;;;13.60;99.90;;;;;;4969535;28;20034;-78
2023/05/12 02:46:42;;;;;;;13.63;5.53;;;13.60;99.90;;;;;;4960796;28;20022;-78
2023/05/12 02:49:07;;;;;;;9.80;6.45;;;13.60;99.90;;;;;;4966274;28;20027;-79
2023/05/12 02:51:33;;;;;;;16.80;10.60;;;13.60;99.90;;;;;;4963169;28;20218;-78
2023/05/12 02:53:59;;;;;;;7.90;4.95;;;13.60;99.90;;;;;;4975483;28;20066;-78
2023/05/12 02:56:24;;;;;;;12.32;6.35;;;13.60;99.90;;;;;;4971870;28;20019;-79
2023/05/12 02:58:50;;;;;;;18.83;12.43;;;13.60;99.90;;;;;;4966490;28;20031;-79
2023/05/12 03:01:16;;;;;;;8.93;5.55;;;13.60;99.90;;;;;;4973697;28;20029;-79
2023/05/12 03:03:41;;;;;;;15.95;9.15;;;13.60;99.90;;;;;;4966107;28;20045;-78
2023/05/12 03:06:07;;;;;;;17.15;9.88;;;13.60;99.90;;;;;;4963179;28;20058;-79
2023/05/12 03:08:33;;;;;;;19.33;11.48;;;13.60;99.90;;;;;;4961486;28;20053;-78
2023/05/12 03:10:58;;;;;;;7.50;3.40;;;13.60;99.90;;;;;;4973807;28;20079;-78
2023/05/12 03:13:24;;;;;;;13.13;7.18;;;13.60;99.90;;;;;;4962113;28;20027;-78
2023/05/12 03:15:49;;;;;;;16.75;11.57;;;13.70;99.90;;;;;;4970066;28;20394;-79
2023/05/12 03:18:15;;;;;;;16.58;10.57;;;13.60;99.90;;;;;;4957033;28;20496;-78
2023/05/12 03:20:41;;;;;;;23.27;14.02;;;13.60;99.90;;;;;;4964916;28;20248;-78
2023/05/12 03:23:06;;;;;;;22.17;14.65;;;13.70;99.90;;;;;;4965588;28;20039;-77
2023/05/12 03:25:33;;;;;;;15.63;9.23;;;13.60;99.90;;;;;;4956137;28;20162;-79
2023/05/12 03:28:02;;;;;;;16.92;8.88;;;13.70;99.90;;;;;;4955784;28;20026;-78
2023/05/12 03:30:27;;;;;;;19.50;13.73;;;13.70;99.90;;;;;;4960720;28;20077;-79
2023/05/12 03:32:53;;;;;;;9.40;4.68;;;13.70;99.90;;;;;;4971015;28;20135;-78
2023/05/12 03:35:19;;;;;;;27.00;17.10;;;13.70;99.90;;;;;;4971404;28;20047;-76
2023/05/12 03:37:45;;;;;;;25.52;14.93;;;13.60;99.90;;;;;;4966693;28;20023;-77
2023/05/12 03:40:11;;;;;;;13.88;9.27;;;13.70;99.90;;;;;;4960577;28;20059;-78
2023/05/12 03:42:37;;;;;;;23.80;11.05;;;13.70;99.90;;;;;;4971778;28;20430;-78
2023/05/12 03:45:05;;;;;;;20.48;13.15;;;13.70;99.90;;;;;;4970958;28;20031;-78
2023/05/12 03:47:33;;;;;;;27.95;17.35;;;13.80;99.90;;;;;;4971153;28;20581;-76
2023/05/12 03:50:01;;;;;;;28.77;18.80;;;13.80;99.90;;;;;;4967385;28;20030;-77
2023/05/12 03:52:26;;;;;;;12.63;6.10;;;13.90;99.90;;;;;;4971261;28;20086;-78
2023/05/12 03:54:52;;;;;;;18.85;10.90;;;13.90;99.90;;;;;;4968034;28;20027;-78
2023/05/12 03:57:17;;;;;;;21.08;11.60;;;13.90;99.90;;;;;;4971097;28;20023;-77
2023/05/12 03:59:43;;;;;;;16.23;5.80;;;13.90;99.90;;;;;;4956411;28;20027;-79
2023/05/12 04:02:10;;;;;;;11.35;5.43;;;14.00;99.90;;;;;;4956633;28;20023;-78
2023/05/12 04:04:37;;;;;;;15.80;6.82;;;14.00;99.90;;;;;;4951778;28;20031;-78
2023/05/12 04:07:03;;;;;;;21.77;13.90;;;14.00;99.90;;;;;;4972837;28;20030;-77
2023/05/12 04:09:31;;;;;;;24.77;16.42;;;14.00;99.90;;;;;;4955060;28;20094;-76
2023/05/12 04:12:00;;;;;;;15.75;7.75;;;14.00;99.90;;;;;;4966347;28;20027;-78
2023/05/12 04:14:26;;;;;;;12.50;6.22;;;14.00;99.90;;;;;;4973381;28;20034;-77
2023/05/12 04:16:51;;;;;;;17.63;11.02;;;14.00;99.90;;;;;;4971663;28;20031;-77
2023/05/12 04:19:17;;;;;;;14.07;6.53;;;14.10;99.90;;;;;;4970348;28;20034;-77
2023/05/12 04:21:42;;;;;;;38.25;24.70;;;14.10;99.90;;;;;;4960116;28;20019;-78
2023/05/12 04:24:09;;;;;;;42.17;26.58;;;14.10;99.90;;;;;;4971090;28;20043;-79
2023/05/12 04:26:34;;;;;;;33.33;21.20;;;14.00;99.90;;;;;;4981175;28;20023;-77
2023/05/12 04:29:01;;;;;;;31.55;20.08;;;14.10;99.90;;;;;;4972844;28;20035;-77
2023/05/12 04:31:27;;;;;;;13.60;7.65;;;14.10;99.90;;;;;;4974264;28;20046;-77
2023/05/12 04:33:54;;;;;;;32.03;20.83;;;14.20;99.90;;;;;;4971311;28;20117;-77
2023/05/12 04:36:20;;;;;;;14.07;8.55;;;14.20;99.90;;;;;;4974095;28;20019;-79
2023/05/12 04:38:47;;;;;;;9.98;5.20;;;14.20;99.90;;;;;;4956835;28;20119;-78
2023/05/12 04:41:13;;;;;;;24.17;14.07;;;14.20;99.90;;;;;;4973710;28;20093;-77
2023/05/12 04:43:38;;;;;;;20.30;12.95;;;14.30;99.90;;;;;;4970828;28;20046;-77
2023/05/12 04:46:10;;;;;;;29.77;17.55;;;14.30;99.90;;;;;;4965558;28;20059;-77
2023/05/12 04:48:40;;;;;;;13.73;6.70;;;14.40;99.90;;;;;;4971061;28;20018;-77
2023/05/12 04:51:06;;;;;;;24.15;13.60;;;14.40;99.90;;;;;;4975217;28;20035;-77
2023/05/12 04:53:33;;;;;;;15.80;9.05;;;14.50;99.90;;;;;;4961859;28;20090;-77
2023/05/12 04:56:02;;;;;;;16.45;6.18;;;14.50;99.90;;;;;;4965637;28;20038;-77
2023/05/12 04:58:27;;;;;;;31.45;20.58;;;14.50;99.90;;;;;;4964462;28;20022;-78
2023/05/12 05:00:53;;;;;;;14.90;7.00;;;14.50;99.90;;;;;;4957196;28;20030;-78
2023/05/12 05:03:18;;;;;;;27.63;16.63;;;14.60;99.90;;;;;;4970080;28;20121;-76
2023/05/12 05:05:44;;;;;;;24.40;14.90;;;14.60;99.90;;;;;;4954750;28;20082;-78
2023/05/12 05:08:12;;;;;;;13.63;7.45;;;14.70;99.90;;;;;;4955584;28;20019;-80
2023/05/12 05:10:38;;;;;;;24.45;15.85;;;14.60;99.90;;;;;;4946553;29;20019;-77
2023/05/12 05:13:03;;;;;;;34.63;21.95;;;14.70;99.90;;;;;;4966530;28;20367;-79
2023/05/12 05:15:29;;;;;;;16.13;8.70;;;14.70;99.90;;;;;;4967631;28;20582;-78
2023/05/12 05:17:54;;;;;;;24.65;17.42;;;14.70;99.90;;;;;;4956151;28;20027;-77
2023/05/12 05:20:20;;;;;;;11.68;5.30;;;14.70;99.90;;;;;;4962297;28;20023;-77
2023/05/12 05:22:47;;;;;;;21.50;15.02;;;14.80;99.90;;;;;;4970127;28;20550;-77
2023/05/12 05:25:13;;;;;;;15.05;9.13;;;14.80;99.90;;;;;;4965203;28;20026;-79
2023/05/12 05:27:38;;;;;;;33.92;23.15;;;14.80;99.90;;;;;;4969941;28;20031;-76
2023/05/12 05:30:07;;;;;;;34.10;23.65;;;14.80;99.90;;;;;;4963240;28;20427;-76
2023/05/12 05:32:35;;;;;;;33.20;22.15;;;14.80;99.90;;;;;;4951821;28;20118;-76
2023/05/12 05:35:01;;;;;;;38.25;25.73;;;14.80;99.90;;;;;;4968322;28;20051;-77
2023/05/12 05:37:27;;;;;;;23.75;13.68;;;14.90;99.90;;;;;;4985804;28;20031;-79
2023/05/12 05:39:53;;;;;;;46.15;31.42;;;15.00;99.90;;;;;;4969695;28;20033;-78
2023/05/12 05:42:19;;;;;;;24.38;15.55;;;15.10;99.90;;;;;;4975613;28;20034;-78
2023/05/12 05:44:45;;;;;;;29.48;17.48;;;15.10;99.90;;;;;;4976883;28;20061;-79
2023/05/12 05:47:11;;;;;;;19.08;12.73;;;15.10;99.90;;;;;;4981321;28;20042;-77
2023/05/12 05:49:36;;;;;;;26.45;17.15;;;15.20;99.90;;;;;;4959465;28;20388;-78
2023/05/12 05:52:03;;;;;;;35.47;24.10;;;15.20;99.90;;;;;;4958099;28;20030;-79
2023/05/12 05:54:29;;;;;;;31.58;18.88;;;15.30;99.90;;;;;;4977892;28;20034;-80
2023/05/12 05:56:59;;;;;;;29.25;20.63;;;15.30;99.90;;;;;;4958774;28;20105;-80
2023/05/12 05:59:25;;;;;;;26.85;17.92;;;15.40;99.90;;;;;;4950112;28;20428;-78
2023/05/12 06:01:50;;;;;;;40.42;29.27;;;15.40;99.90;;;;;;4970180;28;20110;-78
2023/05/12 06:04:16;;;;;;;32.92;23.85;;;15.40;99.90;;;;;;4958827;28;20038;-76
2023/05/12 06:06:42;;;;;;;28.25;20.10;;;15.30;99.90;;;;;;4951969;29;20047;-76
2023/05/12 06:09:11;;;;;;;20.65;13.25;;;15.40;99.90;;;;;;4969101;28;20053;-76
2023/05/12 06:11:36;;;;;;;27.52;20.48;;;15.50;99.90;;;;;;4949845;29;20015;-75
2023/05/12 06:14:02;;;;;;;22.60;17.30;;;15.50;99.90;;;;;;4954423;28;20027;-77
2023/05/12 06:16:28;;;;;;;30.70;21.33;;;15.50;99.90;;;;;;4954529;28;20019;-76
2023/05/12 06:18:54;;;;;;;20.23;14.07;;;15.50;99.90;;;;;;4946569;28;20023;-76
2023/05/12 06:21:20;;;;;;;22.20;14.77;;;15.50;99.90;;;;;;4957616;28;20367;-76
2023/05/12 06:23:45;;;;;;;19.27;12.55;;;15.50;99.90;;;;;;4968543;28;20038;-76
2023/05/12 06:26:11;;;;;;;29.23;21.40;;;15.60;99.90;;;;;;4958051;28;20449;-76
2023/05/12 06:28:37;;;;;;;21.08;14.48;;;15.70;99.90;;;;;;4956840;28;20047;-77
2023/05/12 06:31:08;;;;;;;27.25;19.92;;;15.70;99.90;;;;;;4959298;28;20027;-77
2023/05/12 06:33:34;;;;;;;30.15;22.75;;;15.70;99.90;;;;;;4965455;28;20027;-75
2023/05/12 06:35:59;;;;;;;17.13;10.93;;;15.80;99.90;;;;;;4942731;28;20562;-77
2023/05/12 06:38:27;;;;;;;24.90;16.50;;;15.80;99.90;;;;;;4948300;28;20031;-76
2023/05/12 06:40:53;;;;;;;38.17;27.77;;;15.80;99.90;;;;;;4961501;28;20046;-76
2023/05/12 06:43:18;;;;;;;24.77;18.42;;;15.80;99.90;;;;;;4970685;28;20046;-75
2023/05/12 06:45:47;;;;;;;17.42;11.45;;;15.90;99.90;;;;;;4968194;28;20027;-76
2023/05/12 06:48:12;;;;;;;30.35;22.83;;;16.00;99.90;;;;;;4982818;28;20030;-75
2023/05/12 06:50:38;;;;;;;18.83;13.52;;;16.00;99.90;;;;;;4957496;28;20030;-77
2023/05/12 06:53:06;;;;;;;20.42;13.13;;;16.20;99.90;;;;;;4972310;28;20054;-77
2023/05/12 06:55:32;;;;;;;22.67;17.60;;;16.20;99.90;;;;;;4950636;28;20050;-77
2023/05/12 06:57:58;;;;;;;15.45;11.63;;;16.40;99.90;;;;;;4957864;28;20045;-77
2023/05/12 07:00:25;;;;;;;20.90;16.55;;;16.50;99.90;;;;;;4964488;28;20027;-77
2023/05/12 07:02:51;;;;;;;17.08;12.55;;;16.50;99.90;;;;;;4969564;28;20039;-77
2023/05/12 07:05:19;;;;;;;21.20;15.98;;;16.60;99.90;;;;;;4960638;28;20398;-77
2023/05/12 07:07:45;;;;;;;20.60;15.77;;;16.80;99.90;;;;;;4942810;28;20023;-78
2023/05/12 07:10:11;;;;;;;20.80;15.13;;;17.00;99.90;;;;;;4975074;28;20059;-77
2023/05/12 07:12:37;;;;;;;24.05;19.45;;;17.30;99.90;;;;;;4964102;28;20317;-77
2023/05/12 07:15:05;;;;;;;20.38;16.17;;;17.40;99.90;;;;;;4955637;28;20030;-77
2023/05/12 07:17:31;;;;;;;15.13;12.00;;;17.50;99.90;;;;;;4963321;28;20371;-76
2023/05/12 07:19:56;;;;;;;16.92;14.52;;;17.60;99.90;;;;;;4970246;28;20082;-76
2023/05/12 07:22:22;;;;;;;18.15;14.77;;;17.80;99.60;;;;;;4962728;28;20489;-77
2023/05/12 07:24:48;;;;;;;21.10;16.70;;;17.90;99.40;;;;;;4963830;28;20082;-79
2023/05/12 07:27:14;;;;;;;15.48;12.00;;;18.00;99.50;;;;;;4961747;28;20031;-77
2023/05/12 07:29:40;;;;;;;20.88;16.52;;;18.10;98.90;;;;;;4962661;28;20474;-77
2023/05/12 07:32:06;;;;;;;16.38;13.02;;;18.20;99.10;;;;;;4971981;28;20228;-77
2023/05/12 07:34:32;;;;;;;17.45;12.68;;;18.30;98.60;;;;;;4957017;28;20043;-77
2023/05/12 07:37:01;;;;;;;17.33;14.35;;;18.40;98.50;;;;;;4961699;28;20055;-77
2023/05/12 07:39:27;;;;;;;12.43;9.95;;;18.50;98.30;;;;;;4964834;28;20026;-79
2023/05/12 07:41:54;;;;;;;20.00;15.90;;;18.50;98.00;;;;;;4972856;28;20055;-77
2023/05/12 07:44:20;;;;;;;14.48;11.38;;;18.60;98.10;;;;;;4972062;28;20062;-77
2023/05/12 07:46:45;;;;;;;18.38;13.45;;;18.60;97.90;;;;;;4954068;28;20852;-77
2023/05/12 07:49:11;;;;;;;11.55;8.85;;;18.60;97.90;;;;;;4978862;28;20119;-77
2023/05/12 07:51:38;;;;;;;12.18;9.00;;;18.70;97.70;;;;;;4966913;28;20019;-77
2023/05/12 07:54:06;;;;;;;13.57;10.88;;;18.80;97.80;;;;;;4968360;28;20156;-77
2023/05/12 07:56:32;;;;;;;15.40;11.00;;;19.00;97.40;;;;;;4950073;28;20084;-77
2023/05/12 07:58:58;;;;;;;11.40;7.57;;;19.10;97.10;;;;;;4968799;28;20430;-77
2023/05/12 08:01:23;;;;;;;10.68;8.18;;;19.20;96.90;;;;;;4965051;28;20051;-75
2023/05/12 08:03:50;;;;;;;16.23;12.13;;;19.30;96.70;;;;;;4971758;28;20668;-75
2023/05/12 08:06:16;;;;;;;12.18;10.30;;;19.20;96.30;;;;;;4968569;28;20022;-77
2023/05/12 08:08:42;;;;;;;14.27;10.30;;;19.20;96.40;;;;;;4966457;28;20031;-77
2023/05/12 08:11:08;;;;;;;12.32;8.23;;;19.20;96.60;;;;;;4966350;28;20029;-77
2023/05/12 08:13:35;;;;;;;11.73;9.20;;;19.40;96.60;;;;;;4943497;28;20027;-77
2023/05/12 08:16:01;;;;;;;9.35;5.53;;;19.60;96.40;;;;;;4976153;28;20058;-76
2023/05/12 08:18:27;;;;;;;9.63;7.10;;;19.80;96.10;;;;;;4948853;28;20031;-78
2023/05/12 08:20:53;;;;;;;7.57;5.10;;;19.90;95.50;;;;;;4954922;28;20049;-76
2023/05/12 08:23:19;;;;;;;7.75;5.72;;;20.00;95.70;;;;;;4973002;28;20442;-76
2023/05/12 08:25:47;;;;;;;8.52;6.68;;;20.10;95.50;;;;;;4954778;28;20503;-77
2023/05/12 08:28:16;;;;;;;10.68;6.85;;;20.20;95.10;;;;;;4954895;28;20207;-76
2023/05/12 08:30:43;;;;;;;10.25;7.80;;;20.20;94.90;;;;;;4968135;28;20026;-77
2023/05/12 08:33:09;;;;;;;9.73;7.68;;;20.20;94.30;;;;;;4952832;28;20130;-78
2023/05/12 08:35:38;;;;;;;9.27;6.82;;;20.20;94.40;;;;;;4953530;28;20138;-77
2023/05/12 08:38:04;;;;;;;7.72;5.55;;;20.20;94.00;;;;;;4969054;28;20031;-77
2023/05/12 08:40:33;;;;;;;8.93;6.85;;;20.20;93.90;;;;;;4956025;28;20041;-77
2023/05/12 08:43:10;;;;;;;10.48;6.05;;;20.10;94.60;;;;;;4963132;28;20026;-77
2023/05/12 08:45:37;;;;;;;7.60;5.78;;;20.10;94.00;;;;;;4952859;28;20030;-77
2023/05/12 08:48:08;;;;;;;7.05;5.10;;;20.10;94.70;;;;;;4962671;28;20442;-76
2023/05/12 08:50:36;;;;;;;7.90;4.78;;;20.10;95.30;;;;;;4967080;28;20246;-76
2023/05/12 08:53:04;;;;;;;9.73;6.80;;;20.00;95.40;;;;;;4975575;28;20474;-76
2023/05/12 08:55:30;;;;;;;5.78;4.22;;;19.90;94.10;;;;;;4970680;28;20026;-77
2023/05/12 08:57:58;;;;;;;7.32;4.50;;;19.90;95.20;;;;;;4969252;28;20105;-76
2023/05/12 09:00:25;;;;;;;7.35;3.88;;;20.00;95.20;;;;;;4963606;28;20115;-78
2023/05/12 09:02:51;;;;;;;6.50;4.18;;;20.10;95.60;;;;;;4962801;28;20149;-76
2023/05/12 09:05:17;;;;;;;6.85;3.60;;;20.00;93.50;;;;;;4963800;28;20106;-77
2023/05/12 09:07:43;;;;;;;6.43;4.68;;;20.00;95.10;;;;;;4946997;28;20106;-76
2023/05/12 09:10:17;;;;;;;5.80;4.30;;;20.00;94.20;;;;;;4962594;28;20023;-77
2023/05/12 09:12:48;;;;;;;7.43;4.70;;;20.00;93.70;;;;;;4964099;28;20054;-76
2023/05/12 09:15:19;;;;;;;6.78;4.00;;;20.10;93.40;;;;;;4956488;28;20032;-77
2023/05/12 09:17:44;;;;;;;6.10;4.25;;;20.30;93.20;;;;;;4940076;28;20070;-77
2023/05/12 09:20:11;;;;;;;5.70;3.70;;;20.40;92.90;;;;;;4963542;28;20420;-76
2023/05/12 09:22:38;;;;;;;7.10;4.20;;;20.60;93.70;;;;;;4966889;28;20032;-76
2023/05/12 09:25:20;;;;;;;6.00;3.78;;;20.70;94.00;;;;;;4963670;28;20035;-78
2023/05/12 09:27:47;;;;;;;4.70;3.00;;;20.90;91.90;;;;;;4960616;28;20070;-77
2023/05/12 09:30:30;;;;;;;5.15;2.70;;;21.00;92.60;;;;;;4956511;28;20114;-76
2023/05/12 09:33:10;;;;;;;6.22;3.03;;;21.10;94.30;;;;;;4943032;28;20115;-76
2023/05/12 09:35:45;;;;;;;4.43;2.85;;;21.10;92.60;;;;;;4969367;28;20054;-77
2023/05/12 09:38:12;;;;;;;5.28;3.30;;;21.20;93.50;;;;;;4970440;28;20023;-76
2023/05/12 09:40:39;;;;;;;6.55;2.65;;;21.30;93.50;;;;;;4943863;29;20273;-77
2023/05/12 09:43:06;;;;;;;4.18;2.55;;;21.30;91.90;;;;;;4956727;28;20033;-78
2023/05/12 09:45:36;;;;;;;4.18;2.38;;;21.20;91.90;;;;;;4967464;28;20023;-77
2023/05/12 09:48:11;;;;;;;4.30;2.72;;;21.10;92.10;;;;;;4954846;28;20030;-77
2023/05/12 09:50:49;;;;;;;4.15;2.60;;;21.00;93.00;;;;;;4963869;28;20031;-77
2023/05/12 09:53:16;;;;;;;5.05;2.35;;;21.00;92.10;;;;;;4953144;28;20079;-77
2023/05/12 09:55:43;;;;;;;3.83;2.33;;;21.00;93.20;;;;;;4952544;28;20426;-77
2023/05/12 09:58:09;;;;;;;4.60;2.35;;;21.20;93.20;;;;;;4959799;28;20019;-79
2023/05/12 10:00:39;;;;;;;5.90;2.30;;;21.30;92.60;;;;;;4969473;28;20052;-75
2023/05/12 10:03:14;;;;;;;3.97;3.05;;;21.30;93.70;;;;;;4968629;28;20046;-77
2023/05/12 10:05:45;;;;;;;4.18;2.63;;;21.20;92.40;;;;;;4967058;28;20073;-76
2023/05/12 10:08:16;;;;;;;3.35;1.75;;;21.20;91.20;;;;;;4955982;28;20027;-77
2023/05/12 10:10:47;;;;;;;4.47;2.40;;;21.10;93.90;;;;;;4967925;28;20366;-76
2023/05/12 10:13:13;;;;;;;4.72;2.58;;;21.20;93.00;;;;;;4955246;28;20126;-76
2023/05/12 10:15:39;;;;;;;3.50;2.20;;;21.30;92.90;;;;;;4961100;28;20465;-77
2023/05/12 10:18:06;;;;;;;3.83;2.38;;;21.30;94.30;;;;;;4937073;29;20026;-77
2023/05/12 10:20:32;;;;;;;3.67;2.33;;;21.30;91.90;;;;;;4965378;28;20047;-77
2023/05/12 10:22:59;;;;;;;4.97;2.67;;;21.20;90.90;;;;;;4954504;28;20327;-76
2023/05/12 10:25:26;;;;;;;3.38;2.03;;;21.10;91.50;;;;;;4971174;28;20018;-77
2023/05/12 10:27:54;;;;;;;3.22;2.00;;;21.10;93.30;;;;;;4970510;28;20457;-77
2023/05/12 10:30:20;;;;;;;4.43;2.38;;;21.20;91.80;;;;;;4969706;28;20023;-78
2023/05/12 10:32:46;;;;;;;5.15;2.10;;;21.20;90.80;;;;;;4967079;28;20122;-78
2023/05/12 10:35:13;;;;;;;4.47;2.78;;;21.30;92.20;;;;;;4967593;28;20134;-76
2023/05/12 10:37:41;;;;;;;4.13;2.20;;;21.40;90.80;;;;;;4942000;29;20027;-77
2023/05/12 10:40:09;;;;;;;4.82;2.30;;;21.50;92.20;;;;;;4970006;28;20026;-77
2023/05/12 10:42:41;;;;;;;3.85;1.80;;;21.70;93.60;;;;;;4949399;29;20027;-76
2023/05/12 10:45:17;;;;;;;3.42;2.00;;;21.90;92.30;;;;;;4966095;28;20078;-77
2023/05/12 10:47:43;;;;;;;5.30;1.98;;;22.00;92.60;;;;;;4954770;28;20026;-78
2023/05/12 10:50:12;;;;;;;5.47;2.55;;;22.10;93.00;;;;;;4943459;28;20081;-79
2023/05/12 10:53:01;;;;;;;2.60;1.53;;;22.10;91.30;;;;;;4953998;28;20264;-77
2023/05/12 10:55:41;;;;;;;4.00;2.53;;;22.20;91.50;;;;;;4955767;28;20038;-75
2023/05/12 10:58:11;;;;;;;4.25;2.65;;;22.20;89.50;;;;;;4977979;28;20175;-76
2023/05/12 11:00:45;;;;;;;4.25;2.08;;;22.20;88.30;;;;;;4970647;28;20053;-77
2023/05/12 11:03:15;;;;;;;3.80;2.40;;;22.40;90.00;;;;;;4964550;28;20046;-77
2023/05/12 11:05:42;;;;;;;3.78;2.15;;;22.60;90.00;;;;;;4972141;28;20074;-76
2023/05/12 11:08:08;;;;;;;2.92;1.80;;;23.00;88.80;;;;;;4974209;28;20430;-78
2023/05/12 11:10:34;;;;;;;4.93;2.30;;;23.30;85.80;;;;;;4966256;28;20108;-77
2023/05/12 11:13:01;;;;;;;4.55;1.83;;;23.50;82.80;;;;;;4971324;28;20034;-79
2023/05/12 11:15:27;;;;;;;3.50;2.10;;;;;;;;;;4962593;28;20035;-78
2023/05/12 11:17:53;;;;;;;3.50;2.30;;;;;;;;;;4957513;28;20078;-79
2023/05/12 11:20:23;;;;;;;4.45;2.25;;;;;;;;;;4970364;28;20482;-78
2023/05/12 11:22:50;;;;;;;3.72;2.17;;;;;;;;;;4972623;28;20062;-77
2023/05/12 11:25:16;;;;;;;5.13;2.10;;;;;;;;;;4973131;28;20390;-78
2023/05/12 11:27:46;;;;;;;2.70;1.63;;;;;;;;;;4970536;28;20011;-78
2023/05/12 11:30:13;;;;;;;3.65;2.10;;;;;;;;;;4961469;28;20777;-79
2023/05/12 11:32:39;;;;;;;4.97;1.83;;;;;;;;;;4964881;28;20030;-78
2023/05/12 11:35:11;;;;;;;3.10;1.50;;;;;;;;;;4968107;28;20047;-78
2023/05/12 11:37:38;;;;;;;3.20;1.80;;;;;;;;;;4965038;28;20532;-79
2023/05/12 11:40:24;;;;;;;3.33;2.10;;;;;;;;;;4946764;29;20478;-79
2023/05/12 11:42:53;;;;;;;3.42;2.05;;;;;;;;;;4967248;28;20039;-78
2023/05/12 11:45:23;;;;;;;3.13;1.92;;;;;;;;;;4944041;28;20126;-78
2023/05/12 11:47:50;;;;;;;3.60;1.92;;;;;;;;;;4973380;28;20034;-79
2023/05/12 11:50:23;;;;;;;9.65;2.70;;;;;;;;;;4975465;28;20101;-79
2023/05/12 11:52:50;;;;;;;4.20;2.38;;;;;;;;;;4970284;28;20035;-78
2023/05/12 11:55:21;;;;;;;2.45;1.60;;;;;;;;;;4950468;29;20115;-78
2023/05/12 11:57:54;;;;;;;3.75;1.92;;;;;;;;;;4966314;28;20022;-78
2023/05/12 12:00:26;;;;;;;5.85;2.60;;;;;;;;;;4964798;28;20027;-77
2023/05/12 12:02:52;;;;;;;3.10;2.15;;;;;;;;;;4954113;28;20601;-78
2023/05/12 12:05:20;;;;;;;4.40;1.98;;;;;;;;;;4951924;28;20028;-79
2023/05/12 12:07:52;;;;;;;3.80;1.95;;;;;;;;;;4947072;28;20515;-80
2023/05/12 12:10:19;;;;;;;5.20;2.63;;;;;;;;;;4953420;28;20582;-78
2023/05/12 12:12:48;;;;;;;5.95;2.70;;;;;;;;;;4951966;28;20038;-81
2023/05/12 12:15:14;;;;;;;4.63;2.03;;;;;;;;;;4969316;28;20114;-78
2023/05/12 12:17:40;;;;;;;4.07;1.88;;;;;;;;;;4957685;28;20126;-78
2023/05/12 12:20:07;;;;;;;3.03;1.80;;;;;;;;;;4968541;28;20328;-80
2023/05/12 12:22:34;;;;;;;3.30;2.15;;;;;;;;;;4960318;28;20031;-81
2023/05/12 12:25:00;;;;;;;3.22;1.80;;;;;;;;;;4965249;28;20031;-79
2023/05/12 12:27:29;;;;;;;6.38;2.17;;;;;;;;;;4973233;28;20397;-79
2023/05/12 12:29:55;;;;;;;4.40;2.47;;;;;;;;;;4963008;28;20030;-80
2023/05/12 12:32:21;;;;;;;3.78;2.33;;;;;;;;;;4957402;28;20071;-79
2023/05/12 12:35:00;;;;;;;3.40;1.80;;;;;;;;;;4962723;28;20042;-81
2023/05/12 12:37:32;;;;;;;3.22;2.05;;;;;;;;;;4966344;28;20031;-79
2023/05/12 12:40:06;;;;;;;5.05;2.00;;;;;;;;;;4962595;28;20100;-79
2023/05/12 12:42:34;;;;;;;4.82;2.63;;;;;;;;;;4964779;28;20028;-81
2023/05/12 12:45:01;;;;;;;2.97;1.98;;;;;;;;;;4962996;28;20030;-79
2023/05/12 12:47:27;;;;;;;3.80;1.92;;;;;;;;;;4970433;28;20105;-78
2023/05/12 12:49:56;;;;;;;5.68;2.42;;;;;;;;;;4969209;28;20133;-80